Time,TemperatureF,DewpointF,PressureIn,WindDirection,WindDirectionDegrees,WindSpeedMPH,WindSpeedGustMPH,Humidity,HourlyPrecipIn,Conditions,Clouds,dailyrainin,SoftwareType,DateUTC
2013-07-21 00:01:00,67.0,63.6,29.72,ESE,105,0.0,0.0,89,0.00,,,0.00,Wunderground v.1.15,2013-07-21 07:01:00,
2013-07-21 00:07:00,66.9,63.6,29.72,ESE,105,0.0,0.0,89,0.00,,,0.00,Wunderground v.1.15,2013-07-21 07:07:00,
2013-07-21 00:12:00,66.6,63.6,29.72,ESE,105,0.0,0.0,90,0.00,,,0.00,Wunderground v.1.15,2013-07-21 07:12:00,
2013-07-21 00:17:00,66.4,63.4,29.72,ESE,105,0.0,0.0,90,0.00,,,0.00,Wunderground v.1.15,2013-07-21 07:17:00,
2013-07-21 00:23:00,66.1,63.1,29.71,ESE,105,0.0,0.0,90,0.00,,,0.00,Wunderground v.1.15,2013-07-21 07:23:00,
2013-07-21 00:28:00,66.1,63.4,29.71,ESE,106,0.0,0.0,91,0.00,,,0.00,Wunderground v.1.15,2013-07-21 07:28:00,
2013-07-21 00:33:00,65.9,63.2,29.71,ESE,105,0.0,0.0,91,0.00,,,0.00,Wunderground v.1.15,2013-07-21 07:33:00,
2013-07-21 00:39:00,66.1,63.4,29.71,ESE,105,0.0,0.0,91,0.00,,,0.00,Wunderground v.1.15,2013-07-21 07:39:00,
2013-07-21 00:44:00,66.7,64.0,29.71,ESE,113,0.0,0.0,91,0.00,,,0.00,Wunderground v.1.15,2013-07-21 07:44:00,
2013-07-21 00:49:00,66.8,64.1,29.71,East,97,0.0,0.0,91,0.00,,,0.00,Wunderground v.1.15,2013-07-21 07:49:00,
2013-07-21 00:55:00,66.9,63.9,29.70,ESE,105,0.0,0.0,90,0.00,,,0.00,Wunderground v.1.15,2013-07-21 07:55:00,
2013-07-21 01:00:00,67.1,63.7,29.70,ESE,117,0.0,0.0,89,0.00,,,0.00,Wunderground v.1.15,2013-07-21 08:00:00,
2013-07-21 01:06:00,67.1,63.4,29.70,East,91,0.0,0.0,88,0.00,,,0.00,Wunderground v.1.15,2013-07-21 08:06:00,
2013-07-21 01:11:00,67.1,63.4,29.70,ESE,117,0.0,0.0,88,0.00,,,0.00,Wunderground v.1.15,2013-07-21 08:11:00,
2013-07-21 01:16:00,67.1,63.4,29.70,SE,135,0.0,0.0,88,0.00,,,0.00,Wunderground v.1.15,2013-07-21 08:16:00,
2013-07-21 01:21:00,66.9,63.2,29.70,SE,131,0.0,0.0,88,0.00,,,0.00,Wunderground v.1.15,2013-07-21 08:21:00,
2013-07-21 01:27:00,66.7,63.4,29.70,SE,129,0.0,0.0,89,0.00,,,0.00,Wunderground v.1.15,2013-07-21 08:27:00,
2013-07-21 01:32:00,66.6,63.3,29.70,SE,129,0.0,0.0,89,0.00,,,0.00,Wunderground v.1.15,2013-07-21 08:32:00,
2013-07-21 01:37:00,66.6,63.3,29.71,SE,129,0.0,0.0,89,0.00,,,0.00,Wunderground v.1.15,2013-07-21 08:37:00,
2013-07-21 01:43:00,66.3,63.0,29.71,SE,128,0.0,0.0,89,0.00,,,0.00,Wunderground v.1.15,2013-07-21 08:43:00,
2013-07-21 01:48:00,66.3,63.3,29.71,SE,129,0.0,0.0,90,0.00,,,0.00,Wunderground v.1.15,2013-07-21 08:48:00,
2013-07-21 01:53:00,66.4,63.4,29.71,ESE,114,0.0,0.0,90,0.00,,,0.00,Wunderground v.1.15,2013-07-21 08:53:00,
2013-07-21 01:59:00,66.8,63.8,29.71,ESE,114,0.0,0.0,90,0.00,,,0.00,Wunderground v.1.15,2013-07-21 08:59:00,
2013-07-21 02:04:00,67.0,63.6,29.71,ESE,105,0.0,0.0,89,0.00,,,0.00,Wunderground v.1.15,2013-07-21 09:04:00,
2013-07-21 02:09:00,67.2,63.8,29.71,ESE,111,0.0,0.0,89,0.00,,,0.00,Wunderground v.1.15,2013-07-21 09:09:00,
2013-07-21 02:14:00,67.4,64.0,29.71,SE,131,0.0,0.0,89,0.00,,,0.00,Wunderground v.1.15,2013-07-21 09:14:00,
2013-07-21 02:19:00,67.5,64.1,29.71,SE,140,0.0,0.0,89,0.00,,,0.00,Wunderground v.1.15,2013-07-21 09:19:00,
2013-07-21 02:24:00,67.4,63.7,29.71,SE,138,0.0,0.0,88,0.00,,,0.00,Wunderground v.1.15,2013-07-21 09:24:00,
2013-07-21 02:29:00,67.3,63.9,29.71,ESE,121,0.0,0.0,89,0.00,,,0.00,Wunderground v.1.15,2013-07-21 09:29:00,
2013-07-21 02:34:00,67.2,63.8,29.71,ESE,105,0.0,0.0,89,0.00,,,0.00,Wunderground v.1.15,2013-07-21 09:34:00,
2013-07-21 02:39:00,67.0,63.6,29.71,ESE,105,0.0,0.0,89,0.00,,,0.00,Wunderground v.1.15,2013-07-21 09:39:00,
2013-07-21 02:44:00,67.0,63.6,29.71,ESE,113,0.0,0.0,89,0.00,,,0.00,Wunderground v.1.15,2013-07-21 09:44:00,
2013-07-21 02:49:00,67.0,63.6,29.71,East,97,0.0,0.0,89,0.00,,,0.00,Wunderground v.1.15,2013-07-21 09:49:00,
2013-07-21 02:54:00,67.0,64.0,29.71,ESE,108,0.0,0.0,90,0.00,,,0.00,Wunderground v.1.15,2013-07-21 09:54:00,
2013-07-21 02:59:00,67.1,64.1,29.71,ESE,116,0.0,0.0,90,0.00,,,0.00,Wunderground v.1.15,2013-07-21 09:59:00,
2013-07-21 03:04:00,67.4,64.4,29.71,ESE,118,0.0,0.0,90,0.00,,,0.00,Wunderground v.1.15,2013-07-21 10:04:00,
2013-07-21 03:09:00,67.6,64.2,29.71,ESE,122,0.0,0.0,89,0.00,,,0.00,Wunderground v.1.15,2013-07-21 10:09:00,
2013-07-21 03:14:00,67.7,64.3,29.71,ESE,115,0.0,0.0,89,0.00,,,0.00,Wunderground v.1.15,2013-07-21 10:14:00,
2013-07-21 03:19:00,67.8,64.4,29.71,SE,129,0.0,1.0,89,0.00,,,0.00,Wunderground v.1.15,2013-07-21 10:19:00,
2013-07-21 03:24:00,67.8,64.1,29.70,SE,145,2.0,3.0,88,0.00,,,0.00,Wunderground v.1.15,2013-07-21 10:24:00,
2013-07-21 03:29:00,67.7,64.0,29.70,SE,145,0.0,4.0,88,0.00,,,0.00,Wunderground v.1.15,2013-07-21 10:29:00,
2013-07-21 03:34:00,67.5,63.8,29.70,SE,127,0.0,3.0,88,0.00,,,0.00,Wunderground v.1.15,2013-07-21 10:34:00,
2013-07-21 03:39:00,67.3,63.9,29.70,SE,129,1.0,3.0,89,0.00,,,0.00,Wunderground v.1.15,2013-07-21 10:39:00,
2013-07-21 03:44:00,67.3,63.9,29.70,SE,146,1.0,3.0,89,0.00,,,0.00,Wunderground v.1.15,2013-07-21 10:44:00,
2013-07-21 03:49:00,67.1,63.7,29.70,SSE,165,0.0,3.0,89,0.00,,,0.00,Wunderground v.1.15,2013-07-21 10:49:00,
2013-07-21 03:54:00,67.1,63.7,29.70,SE,126,0.0,2.0,89,0.00,,,0.00,Wunderground v.1.15,2013-07-21 10:54:00,
2013-07-21 03:59:00,66.9,63.6,29.70,ESE,110,0.0,2.0,89,0.00,,,0.00,Wunderground v.1.15,2013-07-21 10:59:00,
2013-07-21 04:04:00,66.8,63.8,29.70,ESE,121,0.0,0.0,90,0.00,,,0.00,Wunderground v.1.15,2013-07-21 11:04:00,
2013-07-21 04:09:00,66.6,63.6,29.70,East,89,0.0,0.0,90,0.00,,,0.00,Wunderground v.1.15,2013-07-21 11:09:00,
2013-07-21 04:14:00,66.6,63.6,29.70,ESE,117,0.0,2.0,90,0.00,,,0.00,Wunderground v.1.15,2013-07-21 11:14:00,
2013-07-21 04:19:00,66.6,63.6,29.70,East,96,0.0,2.0,90,0.00,,,0.00,Wunderground v.1.15,2013-07-21 11:19:00,
2013-07-21 04:24:00,66.4,63.4,29.70,ESE,109,0.0,2.0,90,0.00,,,0.00,Wunderground v.1.15,2013-07-21 11:24:00,
2013-07-21 04:29:00,66.4,63.7,29.70,East,96,0.0,2.0,91,0.00,,,0.00,Wunderground v.1.15,2013-07-21 11:29:00,
2013-07-21 04:34:00,66.3,63.6,29.71,ENE,77,0.0,0.0,91,0.00,,,0.00,Wunderground v.1.15,2013-07-21 11:34:00,
2013-07-21 04:39:00,66.0,63.3,29.71,East,83,0.0,1.0,91,0.00,,,0.00,Wunderground v.1.15,2013-07-21 11:39:00,
2013-07-21 04:44:00,65.9,63.2,29.71,ESE,110,0.0,2.0,91,0.00,,,0.00,Wunderground v.1.15,2013-07-21 11:44:00,
2013-07-21 04:49:00,66.0,63.3,29.71,ESE,116,1.0,2.0,91,0.00,,,0.00,Wunderground v.1.15,2013-07-21 11:49:00,
2013-07-21 04:54:00,66.0,63.3,29.71,East,94,0.0,3.0,91,0.00,,,0.00,Wunderground v.1.15,2013-07-21 11:54:00,
2013-07-21 04:59:00,66.0,63.3,29.71,East,92,0.0,3.0,91,0.00,,,0.00,Wunderground v.1.15,2013-07-21 11:59:00,
2013-07-21 05:04:00,65.9,63.2,29.71,ESE,114,0.0,2.0,91,0.00,,,0.00,Wunderground v.1.15,2013-07-21 12:04:00,
2013-07-21 05:09:00,65.8,63.1,29.71,East,91,0.0,2.0,91,0.00,,,0.00,Wunderground v.1.15,2013-07-21 12:09:00,
2013-07-21 05:14:00,65.8,63.1,29.72,East,95,0.0,0.0,91,0.00,,,0.00,Wunderground v.1.15,2013-07-21 12:14:00,
2013-07-21 05:19:00,65.9,63.2,29.72,ESE,117,0.0,3.0,91,0.00,,,0.00,Wunderground v.1.15,2013-07-21 12:19:00,
2013-07-21 05:24:00,66.0,63.3,29.72,ESE,104,0.0,2.0,91,0.00,,,0.00,Wunderground v.1.15,2013-07-21 12:24:00,
2013-07-21 05:29:00,66.0,63.3,29.72,ESE,108,3.0,3.0,91,0.00,,,0.00,Wunderground v.1.15,2013-07-21 12:29:00,
2013-07-21 05:34:00,66.0,63.0,29.72,SE,129,3.0,3.0,90,0.00,,,0.00,Wunderground v.1.15,2013-07-21 12:34:00,
2013-07-21 05:39:00,66.0,63.0,29.73,ESE,117,0.0,3.0,90,0.00,,,0.00,Wunderground v.1.15,2013-07-21 12:39:00,
2013-07-21 05:44:00,66.0,63.0,29.73,ESE,116,0.0,0.0,90,0.00,,,0.00,Wunderground v.1.15,2013-07-21 12:44:00,
2013-07-21 05:49:00,66.0,63.0,29.73,ESE,121,0.0,0.0,90,0.00,,,0.00,Wunderground v.1.15,2013-07-21 12:49:00,
2013-07-21 05:54:00,66.1,62.8,29.73,ESE,107,0.0,0.0,89,0.00,,,0.00,Wunderground v.1.15,2013-07-21 12:54:00,
2013-07-21 05:59:00,66.3,63.0,29.73,ESE,112,0.0,0.0,89,0.00,,,0.00,Wunderground v.1.15,2013-07-21 12:59:00,
2013-07-21 06:04:00,66.5,63.2,29.73,ESE,122,0.0,0.0,89,0.00,,,0.00,Wunderground v.1.15,2013-07-21 13:04:00,
2013-07-21 06:09:00,66.7,63.0,29.73,ESE,113,0.0,0.0,88,0.00,,,0.00,Wunderground v.1.15,2013-07-21 13:09:00,
2013-07-21 06:14:00,66.8,63.1,29.73,ESE,118,0.0,0.0,88,0.00,,,0.00,Wunderground v.1.15,2013-07-21 13:14:00,
2013-07-21 06:19:00,67.5,63.5,29.73,ESE,114,0.0,0.0,87,0.00,,,0.00,Wunderground v.1.15,2013-07-21 13:19:00,
2013-07-21 06:24:00,68.2,63.9,29.73,SE,134,0.0,0.0,86,0.00,,,0.00,Wunderground v.1.15,2013-07-21 13:24:00,
2013-07-21 06:29:00,68.9,63.9,29.74,ESE,110,0.0,0.0,84,0.00,,,0.00,Wunderground v.1.15,2013-07-21 13:29:00,
2013-07-21 06:34:00,69.4,64.0,29.74,East,85,0.0,0.0,83,0.00,,,0.00,Wunderground v.1.15,2013-07-21 13:34:00,
2013-07-21 06:39:00,69.8,64.1,29.74,East,90,0.0,0.0,82,0.00,,,0.00,Wunderground v.1.15,2013-07-21 13:39:00,
2013-07-21 06:44:00,70.3,63.8,29.74,ESE,103,0.0,2.0,80,0.00,,,0.00,Wunderground v.1.15,2013-07-21 13:44:00,
2013-07-21 06:49:00,70.5,63.7,29.74,East,101,0.0,2.0,79,0.00,,,0.00,Wunderground v.1.15,2013-07-21 13:49:00,
2013-07-21 06:54:00,70.9,64.1,29.74,ENE,72,0.0,3.0,79,0.00,,,0.00,Wunderground v.1.15,2013-07-21 13:54:00,
2013-07-21 06:59:00,71.3,64.1,29.74,SE,131,0.0,3.0,78,0.00,,,0.00,Wunderground v.1.15,2013-07-21 13:59:00,
2013-07-21 07:04:00,71.8,63.8,29.74,ESE,111,0.0,0.0,76,0.00,,,0.00,Wunderground v.1.15,2013-07-21 14:04:00,
2013-07-21 07:09:00,72.2,64.2,29.75,SSE,160,0.0,0.0,76,0.00,,,0.00,Wunderground v.1.15,2013-07-21 14:09:00,
2013-07-21 07:14:00,72.6,63.8,29.75,SE,134,0.0,5.0,74,0.00,,,0.00,Wunderground v.1.15,2013-07-21 14:14:00,
2013-07-21 07:19:00,72.9,63.7,29.75,SE,138,0.0,5.0,73,0.00,,,0.00,Wunderground v.1.15,2013-07-21 14:19:00,
2013-07-21 07:24:00,73.2,64.0,29.75,SSE,153,0.0,1.0,73,0.00,,,0.00,Wunderground v.1.15,2013-07-21 14:24:00,
2013-07-21 07:29:00,73.6,63.6,29.75,SSW,208,2.0,3.0,71,0.00,,,0.00,Wunderground v.1.15,2013-07-21 14:29:00,
2013-07-21 07:34:00,73.6,63.6,29.75,SSW,204,0.0,5.0,71,0.00,,,0.00,Wunderground v.1.15,2013-07-21 14:34:00,
2013-07-21 07:39:00,73.5,63.5,29.75,SSW,207,3.0,6.0,71,0.00,,,0.00,Wunderground v.1.15,2013-07-21 14:39:00,
2013-07-21 07:44:00,73.5,63.5,29.75,SW,218,5.0,6.0,71,0.00,,,0.00,Wunderground v.1.15,2013-07-21 14:44:00,
2013-07-21 07:49:00,73.5,63.5,29.75,SSW,206,5.0,7.0,71,0.00,,,0.00,Wunderground v.1.15,2013-07-21 14:49:00,
2013-07-21 07:54:00,73.9,64.3,29.75,SSW,204,5.0,6.0,72,0.00,,,0.00,Wunderground v.1.15,2013-07-21 14:54:00,
2013-07-21 07:59:00,73.9,63.9,29.75,South,172,2.0,6.0,71,0.00,,,0.00,Wunderground v.1.15,2013-07-21 14:59:00,
2013-07-21 08:04:00,74.5,64.5,29.76,SSE,156,5.0,6.0,71,0.00,,,0.00,Wunderground v.1.15,2013-07-21 15:04:00,
2013-07-21 08:10:00,74.7,63.9,29.76,South,169,5.0,5.0,69,0.00,,,0.00,Wunderground v.1.15,2013-07-21 15:10:00,
2013-07-21 08:15:00,74.7,63.4,29.76,SSW,195,5.0,9.0,68,0.00,,,0.00,Wunderground v.1.15,2013-07-21 15:15:00,
2013-07-21 08:20:00,74.6,63.8,29.76,SSW,211,4.0,5.0,69,0.00,,,0.00,Wunderground v.1.15,2013-07-21 15:20:00,
2013-07-21 08:25:00,74.7,63.4,29.75,SW,231,6.0,8.0,68,0.00,,,0.00,Wunderground v.1.15,2013-07-21 15:25:00,
2013-07-21 08:30:00,75.0,63.7,29.75,South,180,7.0,7.0,68,0.00,,,0.00,Wunderground v.1.15,2013-07-21 15:30:00,
2013-07-21 08:35:00,75.3,63.6,29.76,South,173,5.0,7.0,67,0.00,,,0.00,Wunderground v.1.15,2013-07-21 15:35:00,
2013-07-21 08:40:00,75.5,63.8,29.75,SSE,154,4.0,6.0,67,0.00,,,0.00,Wunderground v.1.15,2013-07-21 15:40:00,
2013-07-21 08:45:00,75.7,63.5,29.76,ESE,121,4.0,6.0,66,0.00,,,0.00,Wunderground v.1.15,2013-07-21 15:45:00,
2013-07-21 08:50:00,76.1,63.9,29.76,SSE,154,3.0,4.0,66,0.00,,,0.00,Wunderground v.1.15,2013-07-21 15:50:00,
2013-07-21 08:55:00,76.6,64.0,29.76,SW,217,2.0,7.0,65,0.00,,,0.00,Wunderground v.1.15,2013-07-21 15:55:00,
2013-07-21 09:00:00,77.3,64.2,29.76,SE,146,5.0,5.0,64,0.00,,,0.00,Wunderground v.1.15,2013-07-21 16:00:00,
2013-07-21 09:05:00,77.3,63.7,29.76,South,173,4.0,10.0,63,0.00,,,0.00,Wunderground v.1.15,2013-07-21 16:05:00,
2013-07-21 09:10:00,77.4,63.8,29.76,SE,124,5.0,6.0,63,0.00,,,0.00,Wunderground v.1.15,2013-07-21 16:10:00,
2013-07-21 09:15:00,76.5,63.4,29.76,SSE,160,2.0,7.0,64,0.00,,,0.00,Wunderground v.1.15,2013-07-21 16:15:00,
2013-07-21 09:20:00,76.3,63.7,29.76,SSE,158,4.0,4.0,65,0.00,,,0.00,Wunderground v.1.15,2013-07-21 16:20:00,
2013-07-21 09:25:00,76.6,63.5,29.76,SE,139,1.0,8.0,64,0.00,,,0.00,Wunderground v.1.15,2013-07-21 16:25:00,
2013-07-21 09:30:00,76.3,63.7,29.77,SSW,203,0.0,3.0,65,0.00,,,0.00,Wunderground v.1.15,2013-07-21 16:30:00,
2013-07-21 09:35:00,76.2,63.1,29.76,SW,221,2.0,5.0,64,0.00,,,0.00,Wunderground v.1.15,2013-07-21 16:35:00,
2013-07-21 09:40:00,76.1,63.0,29.77,SSW,211,5.0,6.0,64,0.00,,,0.00,Wunderground v.1.15,2013-07-21 16:40:00,
2013-07-21 09:45:00,76.3,63.2,29.77,SW,219,8.0,8.0,64,0.00,,,0.00,Wunderground v.1.15,2013-07-21 16:45:00,
2013-07-21 09:50:00,76.2,62.2,29.77,South,171,3.0,5.0,62,0.00,,,0.00,Wunderground v.1.15,2013-07-21 16:50:00,
2013-07-21 09:55:00,76.1,62.6,29.77,South,172,2.0,7.0,63,0.00,,,0.00,Wunderground v.1.15,2013-07-21 16:55:00,
2013-07-21 10:00:00,77.1,63.1,29.77,South,172,3.0,5.0,62,0.00,,,0.00,Wunderground v.1.15,2013-07-21 17:00:00,
2013-07-21 10:05:00,77.8,63.3,29.77,South,174,5.0,8.0,61,0.00,,,0.00,Wunderground v.1.15,2013-07-21 17:05:00,
2013-07-21 10:10:00,78.9,63.4,29.77,SSW,211,1.0,4.0,59,0.00,,,0.00,Wunderground v.1.15,2013-07-21 17:10:00,
2013-07-21 10:15:00,79.0,62.5,29.76,South,170,3.0,9.0,57,0.00,,,0.00,Wunderground v.1.15,2013-07-21 17:15:00,
2013-07-21 10:20:00,79.0,63.0,29.76,SSE,152,0.0,4.0,58,0.00,,,0.00,Wunderground v.1.15,2013-07-21 17:20:00,
2013-07-21 10:25:00,79.6,62.0,29.76,SSE,149,6.0,11.0,55,0.00,,,0.00,Wunderground v.1.15,2013-07-21 17:25:00,
2013-07-21 10:30:00,79.9,61.8,29.76,SE,136,1.0,5.0,54,0.00,,,0.00,Wunderground v.1.15,2013-07-21 17:30:00,
2013-07-21 10:35:00,80.1,62.5,29.76,South,188,4.0,10.0,55,0.00,,,0.00,Wunderground v.1.15,2013-07-21 17:35:00,
2013-07-21 10:40:00,79.5,61.4,29.76,WSW,239,2.0,4.0,54,0.00,,,0.00,Wunderground v.1.15,2013-07-21 17:40:00,
2013-07-21 10:45:00,80.6,61.9,29.76,SSE,158,4.0,11.0,53,0.00,,,0.00,Wunderground v.1.15,2013-07-21 17:45:00,
2013-07-21 10:50:00,80.7,62.0,29.76,SE,139,1.0,4.0,53,0.00,,,0.00,Wunderground v.1.15,2013-07-21 17:50:00,
2013-07-21 10:55:00,81.0,61.7,29.76,South,172,6.0,8.0,52,0.00,,,0.00,Wunderground v.1.15,2013-07-21 17:55:00,
2013-07-21 11:00:00,81.2,61.4,29.76,South,191,5.0,6.0,51,0.00,,,0.00,Wunderground v.1.15,2013-07-21 18:00:00,
2013-07-21 11:05:00,80.9,61.1,29.75,ENE,68,0.0,6.0,51,0.00,,,0.00,Wunderground v.1.15,2013-07-21 18:05:00,
2013-07-21 11:10:00,81.0,60.6,29.75,SW,228,8.0,9.0,50,0.00,,,0.00,Wunderground v.1.15,2013-07-21 18:10:00,
2013-07-21 11:15:00,81.4,62.6,29.75,SW,217,5.0,9.0,53,0.00,,,0.00,Wunderground v.1.15,2013-07-21 18:15:00,
2013-07-21 11:20:00,82.0,61.5,29.75,SE,143,6.0,7.0,50,0.00,,,0.00,Wunderground v.1.15,2013-07-21 18:20:00,
2013-07-21 11:25:00,82.2,61.1,29.75,SE,136,7.0,14.0,49,0.00,,,0.00,Wunderground v.1.15,2013-07-21 18:25:00,
2013-07-21 11:30:00,81.3,60.9,29.75,SSW,201,4.0,6.0,50,0.00,,,0.00,Wunderground v.1.15,2013-07-21 18:30:00,
2013-07-21 11:35:00,81.2,60.8,29.75,SE,128,3.0,10.0,50,0.00,,,0.00,Wunderground v.1.15,2013-07-21 18:35:00,
2013-07-21 11:40:00,80.4,60.6,29.75,East,86,3.0,3.0,51,0.00,,,0.00,Wunderground v.1.15,2013-07-21 18:40:00,
2013-07-21 11:45:00,80.6,60.2,29.74,SSE,160,0.0,10.0,50,0.00,,,0.00,Wunderground v.1.15,2013-07-21 18:45:00,
2013-07-21 11:50:00,80.6,60.2,29.74,SSE,154,2.0,5.0,50,0.00,,,0.00,Wunderground v.1.15,2013-07-21 18:50:00,
2013-07-21 11:55:00,80.4,60.1,29.74,SSE,156,0.0,5.0,50,0.00,,,0.00,Wunderground v.1.15,2013-07-21 18:55:00,
2013-07-21 12:00:00,81.2,61.4,29.74,SSE,160,6.0,9.0,51,0.00,,,0.00,Wunderground v.1.15,2013-07-21 19:00:00,
2013-07-21 12:05:00,81.8,60.2,29.74,SW,217,7.0,11.0,48,0.00,,,0.00,Wunderground v.1.15,2013-07-21 19:05:00,
2013-07-21 12:10:00,81.8,60.8,29.74,South,172,7.0,8.0,49,0.00,,,0.00,Wunderground v.1.15,2013-07-21 19:10:00,
2013-07-21 12:15:00,82.5,60.8,29.74,SE,135,5.0,13.0,48,0.00,,,0.00,Wunderground v.1.15,2013-07-21 19:15:00,
2013-07-21 12:20:00,82.7,60.4,29.73,SSW,201,5.0,7.0,47,0.00,,,0.00,Wunderground v.1.15,2013-07-21 19:20:00,
2013-07-21 12:25:00,82.6,60.3,29.73,SSE,163,8.0,9.0,47,0.00,,,0.00,Wunderground v.1.15,2013-07-21 19:25:00,
2013-07-21 12:30:00,83.4,61.1,29.73,SSE,152,8.0,11.0,47,0.00,,,0.00,Wunderground v.1.15,2013-07-21 19:30:00,
2013-07-21 12:35:00,83.7,60.7,29.73,SW,231,10.0,11.0,46,0.00,,,0.00,Wunderground v.1.15,2013-07-21 19:35:00,
2013-07-21 12:40:00,83.8,60.8,29.73,SSW,212,8.0,9.0,46,0.00,,,0.00,Wunderground v.1.15,2013-07-21 19:40:00,
2013-07-21 12:45:00,83.8,60.8,29.73,WSW,248,5.0,11.0,46,0.00,,,0.00,Wunderground v.1.15,2013-07-21 19:45:00,
2013-07-21 12:50:00,84.3,61.9,29.72,WSW,253,3.0,6.0,47,0.00,,,0.00,Wunderground v.1.15,2013-07-21 19:50:00,
2013-07-21 12:55:00,84.5,60.8,29.72,SSE,158,7.0,10.0,45,0.00,,,0.00,Wunderground v.1.15,2013-07-21 19:55:00,
2013-07-21 13:00:00,84.5,60.8,29.72,WSW,242,7.0,11.0,45,0.00,,,0.00,Wunderground v.1.15,2013-07-21 20:00:00,
2013-07-21 13:05:00,83.8,60.8,29.72,SW,219,4.0,11.0,46,0.00,,,0.00,Wunderground v.1.15,2013-07-21 20:05:00,
2013-07-21 13:10:00,84.2,59.9,29.72,SW,228,1.0,4.0,44,0.00,,,0.00,Wunderground v.1.15,2013-07-21 20:10:00,
2013-07-21 13:15:00,84.7,60.4,29.71,SW,226,1.0,8.0,44,0.00,,,0.00,Wunderground v.1.15,2013-07-21 20:15:00,
2013-07-21 13:20:00,85.9,60.1,29.71,SW,217,12.0,12.0,42,0.00,,,0.00,Wunderground v.1.15,2013-07-21 20:20:00,
2013-07-21 13:25:00,85.7,60.6,29.72,SSE,164,11.0,14.0,43,0.00,,,0.00,Wunderground v.1.15,2013-07-21 20:25:00,
2013-07-21 13:30:00,86.2,59.7,29.72,SSW,212,10.0,10.0,41,0.00,,,0.00,Wunderground v.1.15,2013-07-21 20:30:00,
2013-07-21 13:35:00,85.8,59.4,29.71,South,176,1.0,12.0,41,0.00,,,0.00,Wunderground v.1.15,2013-07-21 20:35:00,
2013-07-21 13:40:00,85.6,60.5,29.71,WSW,245,7.0,13.0,43,0.00,,,0.00,Wunderground v.1.15,2013-07-21 20:40:00,
2013-07-21 13:45:00,85.0,60.0,29.71,WSW,239,5.0,13.0,43,0.00,,,0.00,Wunderground v.1.15,2013-07-21 20:45:00,
2013-07-21 13:50:00,84.1,59.8,29.71,South,181,5.0,6.0,44,0.00,,,0.00,Wunderground v.1.15,2013-07-21 20:50:00,
2013-07-21 13:55:00,84.7,59.7,29.71,West,264,5.0,10.0,43,0.00,,,0.00,Wunderground v.1.15,2013-07-21 20:55:00,
2013-07-21 14:00:00,84.5,60.8,29.71,SW,222,4.0,6.0,45,0.00,,,0.00,Wunderground v.1.15,2013-07-21 21:00:00,
2013-07-21 14:05:00,84.2,59.9,29.71,SSW,210,10.0,12.0,44,0.00,,,0.00,Wunderground v.1.15,2013-07-21 21:05:00,
2013-07-21 14:10:00,84.4,59.5,29.71,SSW,198,1.0,7.0,43,0.00,,,0.00,Wunderground v.1.15,2013-07-21 21:10:00,
2013-07-21 14:15:00,85.1,59.4,29.70,SSW,201,6.0,10.0,42,0.00,,,0.00,Wunderground v.1.15,2013-07-21 21:15:00,
2013-07-21 14:20:00,85.9,59.5,29.71,SSE,167,6.0,10.0,41,0.00,,,0.00,Wunderground v.1.15,2013-07-21 21:20:00,
2013-07-21 14:25:00,85.4,60.4,29.70,SW,226,1.0,12.0,43,0.00,,,0.00,Wunderground v.1.15,2013-07-21 21:25:00,
2013-07-21 14:30:00,85.4,59.0,29.70,SSW,205,5.0,10.0,41,0.00,,,0.00,Wunderground v.1.15,2013-07-21 21:30:00,
2013-07-21 14:35:00,85.5,59.1,29.70,SW,228,6.0,10.0,41,0.00,,,0.00,Wunderground v.1.15,2013-07-21 21:35:00,
2013-07-21 14:40:00,85.7,59.3,29.70,SW,233,2.0,6.0,41,0.00,,,0.00,Wunderground v.1.15,2013-07-21 21:40:00,
2013-07-21 14:45:00,85.7,58.6,29.70,South,181,8.0,9.0,40,0.00,,,0.00,Wunderground v.1.15,2013-07-21 21:45:00,
2013-07-21 14:50:00,84.8,59.2,29.70,WSW,244,3.0,4.0,42,0.00,,,0.00,Wunderground v.1.15,2013-07-21 21:50:00,
2013-07-21 14:55:00,84.8,60.5,29.69,WSW,240,7.0,11.0,44,0.00,,,0.00,Wunderground v.1.15,2013-07-21 21:55:00,
2013-07-21 15:00:00,85.3,60.3,29.69,SW,228,4.0,7.0,43,0.00,,,0.00,Wunderground v.1.15,2013-07-21 22:00:00,
2013-07-21 15:05:00,85.6,60.5,29.69,SW,232,8.0,13.0,43,0.00,,,0.00,Wunderground v.1.15,2013-07-21 22:05:00,
2013-07-21 15:10:00,85.4,61.0,29.69,West,273,1.0,6.0,44,0.00,,,0.00,Wunderground v.1.15,2013-07-21 22:10:00,
2013-07-21 15:15:00,85.9,60.1,29.69,West,271,4.0,14.0,42,0.00,,,0.00,Wunderground v.1.15,2013-07-21 22:15:00,
2013-07-21 15:20:00,86.1,60.3,29.69,WSW,251,11.0,15.0,42,0.00,,,0.00,Wunderground v.1.15,2013-07-21 22:20:00,
2013-07-21 15:25:00,85.7,60.0,29.69,SW,217,0.0,15.0,42,0.00,,,0.00,Wunderground v.1.15,2013-07-21 22:25:00,
2013-07-21 15:30:00,86.0,60.2,29.69,SW,236,10.0,14.0,42,0.00,,,0.00,Wunderground v.1.15,2013-07-21 22:30:00,
2013-07-21 15:35:00,84.9,59.9,29.69,West,278,2.0,14.0,43,0.00,,,0.00,Wunderground v.1.15,2013-07-21 22:35:00,
2013-07-21 15:40:00,84.7,60.4,29.69,WSW,253,4.0,10.0,44,0.00,,,0.00,Wunderground v.1.15,2013-07-21 22:40:00,
2013-07-21 15:45:00,84.2,61.8,29.69,West,265,6.0,11.0,47,0.00,,,0.00,Wunderground v.1.15,2013-07-21 22:45:00,
2013-07-21 15:50:00,83.6,62.4,29.69,WNW,287,6.0,11.0,49,0.00,,,0.00,Wunderground v.1.15,2013-07-21 22:50:00,
2013-07-21 15:55:00,84.4,62.6,29.69,WNW,293,9.0,16.0,48,0.00,,,0.00,Wunderground v.1.15,2013-07-21 22:55:00,
2013-07-21 16:00:00,85.0,63.1,29.69,WNW,288,8.0,9.0,48,0.00,,,0.00,Wunderground v.1.15,2013-07-21 23:00:00,
2013-07-21 16:05:00,84.9,61.8,29.68,WNW,303,8.0,14.0,46,0.00,,,0.00,Wunderground v.1.15,2013-07-21 23:05:00,
2013-07-21 16:10:00,84.5,62.1,29.68,WSW,255,11.0,13.0,47,0.00,,,0.00,Wunderground v.1.15,2013-07-21 23:10:00,
2013-07-21 16:15:00,84.3,61.9,29.68,WNW,285,11.0,15.0,47,0.00,,,0.00,Wunderground v.1.15,2013-07-21 23:15:00,
2013-07-21 16:20:00,83.6,61.8,29.67,West,259,12.0,12.0,48,0.00,,,0.00,Wunderground v.1.15,2013-07-21 23:20:00,
2013-07-21 16:25:00,83.7,61.9,29.67,West,276,4.0,17.0,48,0.00,,,0.00,Wunderground v.1.15,2013-07-21 23:25:00,
2013-07-21 16:30:00,83.5,61.7,29.67,West,272,6.0,10.0,48,0.00,,,0.00,Wunderground v.1.15,2013-07-21 23:30:00,
2013-07-21 16:35:00,83.1,61.4,29.67,West,281,7.0,18.0,48,0.00,,,0.00,Wunderground v.1.15,2013-07-21 23:35:00,
2013-07-21 16:40:00,82.9,61.2,29.67,WNW,295,12.0,14.0,48,0.00,,,0.00,Wunderground v.1.15,2013-07-21 23:40:00,
2013-07-21 16:45:00,82.9,61.2,29.67,WNW,301,8.0,14.0,48,0.00,,,0.00,Wunderground v.1.15,2013-07-21 23:45:00,
2013-07-21 16:50:00,83.2,60.9,29.67,WNW,291,11.0,11.0,47,0.00,,,0.00,Wunderground v.1.15,2013-07-21 23:50:00,
2013-07-21 16:55:00,83.0,60.1,29.67,West,281,11.0,14.0,46,0.00,,,0.00,Wunderground v.1.15,2013-07-21 23:55:00,
2013-07-21 17:00:00,83.3,61.0,29.67,NW,314,12.0,14.0,47,0.00,,,0.00,Wunderground v.1.15,2013-07-22 00:00:00,
2013-07-21 17:05:00,83.7,60.1,29.67,West,273,8.0,14.0,45,0.00,,,0.00,Wunderground v.1.15,2013-07-22 00:05:00,
2013-07-21 17:10:00,83.4,59.8,29.67,WNW,292,12.0,15.0,45,0.00,,,0.00,Wunderground v.1.15,2013-07-22 00:10:00,
2013-07-21 17:15:00,83.4,60.4,29.66,WNW,291,6.0,15.0,46,0.00,,,0.00,Wunderground v.1.15,2013-07-22 00:15:00,
2013-07-21 17:20:00,82.3,60.6,29.66,WNW,302,8.0,9.0,48,0.00,,,0.00,Wunderground v.1.15,2013-07-22 00:20:00,
2013-07-21 17:25:00,82.5,61.4,29.66,NW,307,4.0,9.0,49,0.00,,,0.00,Wunderground v.1.15,2013-07-22 00:25:00,
2013-07-21 17:30:00,82.6,62.1,29.67,NW,314,5.0,11.0,50,0.00,,,0.00,Wunderground v.1.15,2013-07-22 00:30:00,
2013-07-21 17:35:00,81.7,61.8,29.67,WNW,301,2.0,11.0,51,0.00,,,0.00,Wunderground v.1.15,2013-07-22 00:35:00,
2013-07-21 17:40:00,81.5,61.1,29.66,West,276,6.0,11.0,50,0.00,,,0.00,Wunderground v.1.15,2013-07-22 00:40:00,
2013-07-21 17:45:00,80.8,61.5,29.67,NW,307,5.0,11.0,52,0.00,,,0.00,Wunderground v.1.15,2013-07-22 00:45:00,
2013-07-21 17:50:00,80.7,62.0,29.67,NW,309,6.0,10.0,53,0.00,,,0.00,Wunderground v.1.15,2013-07-22 00:50:00,
2013-07-21 17:55:00,81.4,62.6,29.67,NW,326,0.0,10.0,53,0.00,,,0.00,Wunderground v.1.15,2013-07-22 00:55:00,
2013-07-21 18:00:00,81.6,61.2,29.67,WNW,295,4.0,8.0,50,0.00,,,0.00,Wunderground v.1.15,2013-07-22 01:00:00,
2013-07-21 18:05:00,81.5,61.6,29.67,NW,307,10.0,17.0,51,0.00,,,0.00,Wunderground v.1.15,2013-07-22 01:05:00,
2013-07-21 18:10:00,80.7,62.0,29.68,West,262,10.0,12.0,53,0.00,,,0.00,Wunderground v.1.15,2013-07-22 01:10:00,
2013-07-21 18:15:00,80.1,62.5,29.68,West,259,5.0,12.0,55,0.00,,,0.00,Wunderground v.1.15,2013-07-22 01:15:00,
2013-07-21 18:20:00,79.7,62.1,29.68,WNW,291,10.0,12.0,55,0.00,,,0.00,Wunderground v.1.15,2013-07-22 01:20:00,
2013-07-21 18:25:00,79.2,62.7,29.69,WNW,301,9.0,14.0,57,0.00,,,0.00,Wunderground v.1.15,2013-07-22 01:25:00,
2013-07-21 18:30:00,78.9,62.9,29.69,WNW,295,7.0,11.0,58,0.00,,,0.00,Wunderground v.1.15,2013-07-22 01:30:00,
2013-07-21 18:35:00,78.6,63.6,29.69,NW,307,9.0,14.0,60,0.00,,,0.00,Wunderground v.1.15,2013-07-22 01:35:00,
2013-07-21 18:40:00,78.3,64.2,29.69,WNW,300,11.0,11.0,62,0.00,,,0.00,Wunderground v.1.15,2013-07-22 01:40:00,
2013-07-21 18:45:00,78.1,64.5,29.69,WNW,284,9.0,12.0,63,0.00,,,0.00,Wunderground v.1.15,2013-07-22 01:45:00,
2013-07-21 18:50:00,77.9,64.3,29.70,NNW,328,10.0,11.0,63,0.00,,,0.00,Wunderground v.1.15,2013-07-22 01:50:00,
2013-07-21 18:55:00,77.7,64.5,29.70,NW,309,4.0,11.0,64,0.00,,,0.00,Wunderground v.1.15,2013-07-22 01:55:00,
2013-07-21 19:00:00,77.4,64.7,29.70,NW,309,5.0,8.0,65,0.00,,,0.00,Wunderground v.1.15,2013-07-22 02:00:00,
2013-07-21 19:06:00,77.1,64.9,29.70,NNW,328,5.0,9.0,66,0.00,,,0.00,Wunderground v.1.15,2013-07-22 02:06:00,
2013-07-21 19:11:00,76.7,64.9,29.70,WNW,302,5.0,7.0,67,0.00,,,0.00,Wunderground v.1.15,2013-07-22 02:11:00,
2013-07-21 19:16:00,76.4,64.6,29.71,NNW,336,4.0,10.0,67,0.00,,,0.00,Wunderground v.1.15,2013-07-22 02:16:00,
2013-07-21 19:21:00,76.2,64.9,29.71,NNW,330,0.0,7.0,68,0.00,,,0.00,Wunderground v.1.15,2013-07-22 02:21:00,
2013-07-21 19:26:00,75.9,65.0,29.70,WNW,295,6.0,8.0,69,0.00,,,0.00,Wunderground v.1.15,2013-07-22 02:26:00,
2013-07-21 19:31:00,75.7,65.2,29.70,NW,304,5.0,7.0,70,0.00,,,0.00,Wunderground v.1.15,2013-07-22 02:31:00,
2013-07-21 19:36:00,75.5,65.0,29.70,NW,312,4.0,9.0,70,0.00,,,0.00,Wunderground v.1.15,2013-07-22 02:36:00,
2013-07-21 19:41:00,75.4,65.3,29.71,WNW,293,4.0,7.0,71,0.00,,,0.00,Wunderground v.1.15,2013-07-22 02:41:00,
2013-07-21 19:46:00,75.3,65.2,29.71,WNW,297,8.0,9.0,71,0.00,,,0.00,Wunderground v.1.15,2013-07-22 02:46:00,
2013-07-21 19:51:00,75.2,65.1,29.71,NW,316,4.0,6.0,71,0.00,,,0.00,Wunderground v.1.15,2013-07-22 02:51:00,
2013-07-21 19:56:00,75.0,65.0,29.71,NW,307,0.0,8.0,71,0.00,,,0.00,Wunderground v.1.15,2013-07-22 02:56:00,
2013-07-21 20:01:00,75.0,65.4,29.71,NW,323,3.0,6.0,72,0.00,,,0.00,Wunderground v.1.15,2013-07-22 03:01:00,
2013-07-21 20:06:00,75.0,65.4,29.72,NNW,334,6.0,8.0,72,0.00,,,0.00,Wunderground v.1.15,2013-07-22 03:06:00,
2013-07-21 20:11:00,75.0,65.4,29.72,NNW,328,4.0,4.0,72,0.00,,,0.00,Wunderground v.1.15,2013-07-22 03:11:00,
2013-07-21 20:16:00,74.9,65.3,29.72,NW,325,3.0,8.0,72,0.00,,,0.00,Wunderground v.1.15,2013-07-22 03:16:00,
2013-07-21 20:21:00,74.8,65.2,29.72,NNW,331,3.0,7.0,72,0.00,,,0.00,Wunderground v.1.15,2013-07-22 03:21:00,
2013-07-21 20:26:00,74.7,65.1,29.72,NW,317,1.0,7.0,72,0.00,,,0.00,Wunderground v.1.15,2013-07-22 03:26:00,
2013-07-21 20:31:00,74.6,65.4,29.72,NW,307,3.0,6.0,73,0.00,,,0.00,Wunderground v.1.15,2013-07-22 03:31:00,
2013-07-21 20:36:00,74.5,65.3,29.72,NW,325,6.0,7.0,73,0.00,,,0.00,Wunderground v.1.15,2013-07-22 03:36:00,
2013-07-21 20:41:00,74.4,65.2,29.72,NW,316,0.0,4.0,73,0.00,,,0.00,Wunderground v.1.15,2013-07-22 03:41:00,
2013-07-21 20:46:00,74.3,65.5,29.73,NW,307,0.0,6.0,74,0.00,,,0.00,Wunderground v.1.15,2013-07-22 03:46:00,
2013-07-21 20:51:00,74.2,65.4,29.73,NNW,339,1.0,2.0,74,0.00,,,0.00,Wunderground v.1.15,2013-07-22 03:51:00,
2013-07-21 20:56:00,74.1,65.3,29.73,NNW,327,1.0,5.0,74,0.00,,,0.00,Wunderground v.1.15,2013-07-22 03:56:00,
2013-07-21 21:01:00,74.0,65.2,29.73,NW,316,2.0,3.0,74,0.00,,,0.00,Wunderground v.1.15,2013-07-22 04:01:00,
2013-07-21 21:06:00,73.9,65.5,29.73,NW,306,0.0,4.0,75,0.00,,,0.00,Wunderground v.1.15,2013-07-22 04:06:00,
2013-07-21 21:11:00,73.8,65.4,29.74,NW,307,0.0,2.0,75,0.00,,,0.00,Wunderground v.1.15,2013-07-22 04:11:00,
2013-07-21 21:16:00,73.8,65.4,29.74,NW,307,0.0,2.0,75,0.00,,,0.00,Wunderground v.1.15,2013-07-22 04:16:00,
2013-07-21 21:21:00,73.7,65.3,29.74,WNW,301,0.0,0.0,75,0.00,,,0.00,Wunderground v.1.15,2013-07-22 04:21:00,
2013-07-21 21:26:00,73.6,65.2,29.74,NW,316,0.0,0.0,75,0.00,,,0.00,Wunderground v.1.15,2013-07-22 04:26:00,
2013-07-21 21:31:00,73.5,65.5,29.74,NNW,341,0.0,0.0,76,0.00,,,0.00,Wunderground v.1.15,2013-07-22 04:31:00,
2013-07-21 21:36:00,73.4,65.4,29.75,NNW,335,0.0,0.0,76,0.00,,,0.00,Wunderground v.1.15,2013-07-22 04:36:00,
2013-07-21 21:41:00,73.3,65.3,29.75,NW,316,0.0,0.0,76,0.00,,,0.00,Wunderground v.1.15,2013-07-22 04:41:00,
2013-07-21 21:46:00,73.1,65.5,29.75,NW,314,0.0,0.0,77,0.00,,,0.00,Wunderground v.1.15,2013-07-22 04:46:00,
2013-07-21 21:52:00,72.9,65.3,29.75,NW,314,0.0,0.0,77,0.00,,,0.00,Wunderground v.1.15,2013-07-22 04:52:00,
2013-07-21 21:57:00,72.8,65.2,29.75,NW,314,0.0,0.0,77,0.00,,,0.00,Wunderground v.1.15,2013-07-22 04:57:00,
2013-07-21 22:02:00,72.7,65.4,29.75,NW,314,0.0,0.0,78,0.00,,,0.00,Wunderground v.1.15,2013-07-22 05:02:00,
2013-07-21 22:07:00,72.5,65.2,29.76,NW,314,0.0,0.0,78,0.00,,,0.00,Wunderground v.1.15,2013-07-22 05:07:00,
2013-07-21 22:12:00,72.4,65.2,29.76,NW,314,0.0,0.0,78,0.00,,,0.00,Wunderground v.1.15,2013-07-22 05:12:00,
2013-07-21 22:17:00,72.2,65.3,29.76,NW,314,0.0,0.0,79,0.00,,,0.00,Wunderground v.1.15,2013-07-22 05:17:00,
2013-07-21 22:22:00,72.2,65.3,29.76,NW,314,0.0,0.0,79,0.00,,,0.00,Wunderground v.1.15,2013-07-22 05:22:00,
2013-07-21 22:27:00,72.1,65.6,29.76,NW,314,0.0,0.0,80,0.00,,,0.00,Wunderground v.1.15,2013-07-22 05:27:00,
2013-07-21 22:32:00,71.9,65.4,29.76,NW,314,0.0,0.0,80,0.00,,,0.00,Wunderground v.1.15,2013-07-22 05:32:00,
2013-07-21 22:37:00,71.8,65.3,29.75,NW,314,0.0,0.0,80,0.00,,,0.00,Wunderground v.1.15,2013-07-22 05:37:00,
2013-07-21 22:42:00,71.7,65.2,29.76,NW,313,0.0,0.0,80,0.00,,,0.00,Wunderground v.1.15,2013-07-22 05:42:00,
2013-07-21 22:47:00,71.6,65.5,29.76,NW,313,0.0,0.0,81,0.00,,,0.00,Wunderground v.1.15,2013-07-22 05:47:00,
2013-07-21 22:52:00,71.5,65.4,29.76,NW,314,0.0,0.0,81,0.00,,,0.00,Wunderground v.1.15,2013-07-22 05:52:00,
2013-07-21 22:56:00,71.3,65.2,29.76,NW,314,0.0,0.0,81,0.00,,,0.00,Wunderground v.1.15,2013-07-22 05:56:00,
2013-07-21 23:02:00,71.1,65.3,29.76,NW,314,0.0,0.0,82,0.00,,,0.00,Wunderground v.1.15,2013-07-22 06:02:00,
2013-07-21 23:07:00,70.9,65.5,29.77,NW,314,0.0,0.0,83,0.00,,,0.00,Wunderground v.1.15,2013-07-22 06:07:00,
2013-07-21 23:12:00,70.8,65.4,29.77,NW,314,0.0,0.0,83,0.00,,,0.00,Wunderground v.1.15,2013-07-22 06:12:00,
2013-07-21 23:17:00,70.7,65.3,29.77,NW,314,0.0,0.0,83,0.00,,,0.00,Wunderground v.1.15,2013-07-22 06:17:00,
2013-07-21 23:22:00,70.5,65.4,29.77,NW,314,0.0,0.0,84,0.00,,,0.00,Wunderground v.1.15,2013-07-22 06:22:00,
2013-07-21 23:27:00,70.3,65.2,29.77,NW,314,0.0,0.0,84,0.00,,,0.00,Wunderground v.1.15,2013-07-22 06:27:00,
2013-07-21 23:32:00,70.2,65.1,29.77,NW,314,0.0,0.0,84,0.00,,,0.00,Wunderground v.1.15,2013-07-22 06:32:00,
2013-07-21 23:37:00,70.1,65.0,29.77,NW,314,0.0,0.0,84,0.00,,,0.00,Wunderground v.1.15,2013-07-22 06:37:00,
2013-07-21 23:42:00,70.1,65.0,29.77,NW,314,0.0,0.0,84,0.00,,,0.00,Wunderground v.1.15,2013-07-22 06:42:00,
2013-07-21 23:47:00,70.0,64.9,29.77,NW,314,0.0,0.0,84,0.00,,,0.00,Wunderground v.1.15,2013-07-22 06:47:00,
2013-07-21 23:52:00,69.9,64.8,29.77,NW,314,0.0,0.0,84,0.00,,,0.00,Wunderground v.1.15,2013-07-22 06:52:00,
2013-07-21 23:57:00,69.8,65.1,29.77,NW,314,0.0,0.0,85,0.00,,,0.00,Wunderground v.1.15,2013-07-22 06:57:00,